Time;durP1;ratioP1;P1;durP2;ratioP2;P2;SDS_P1;SDS_P2;PMS_P1;PMS_P2;Temp;Humidity;BMP_temperature;BMP_pressure;BME280_temperature;BME280_humidity;BME280_pressure;Samples;Min_cycle;Max_cycle;Signal;HPM_P1;HPM_P2
2022/06/14 00:01:44;;;;;;;;;;;;;;;;;;;;;
2022/06/14 00:05:00;;;;;;;7.35;1.90;;;16.50;79.50;;;;;;4921416;29;20028;-87
2022/06/14 00:07:59;;;;;;;6.43;1.80;;;16.40;79.60;;;;;;5010432;28;20044;-88
2022/06/14 00:11:00;;;;;;;;;;;;;;;;;;;;;
2022/06/14 00:14:26;;;;;;;;;;;;;;;;;;;;;
2022/06/14 00:27:03;;;;;;;10.38;2.33;;;16.10;81.00;;;;;;4948363;29;20508;-88
2022/06/14 00:36:28;;;;;;;9.90;2.13;;;16.00;81.60;;;;;;4881262;29;20036;-87
2022/06/14 00:43:02;;;;;;;9.68;2.25;;;15.90;82.60;;;;;;4895482;29;20450;-87
2022/06/14 00:45:48;;;;;;;7.47;2.30;;;15.90;83.40;;;;;;4880546;29;20029;-88
2022/06/14 00:48:46;;;;;;;10.05;2.30;;;15.90;83.70;;;;;;4900602;29;20520;-88
2022/06/14 00:51:47;;;;;;;10.15;2.13;;;15.80;83.90;;;;;;4895411;29;20029;-88
2022/06/14 00:54:35;;;;;;;9.13;2.37;;;15.80;83.90;;;;;;4914845;29;20094;-88
2022/06/14 00:57:43;;;;;;;;;;;;;;;;;;;;;
2022/06/14 01:00:52;;;;;;;;;;;;;;;;;;;;;
2022/06/14 01:03:59;;;;;;;8.68;2.30;;;15.70;84.50;;;;;;4939077;29;20028;-87
2022/06/14 01:06:49;;;;;;;7.97;2.50;;;15.70;84.80;;;;;;4919314;29;20064;-88
2022/06/14 01:09:58;;;;;;;7.72;2.30;;;15.70;85.00;;;;;;4925200;29;20059;-85
2022/06/14 01:13:29;;;;;;;;;;;;;;;;;;;;;
2022/06/14 01:16:27;;;;;;;9.20;2.25;;;15.60;86.10;;;;;;4933669;29;20042;-88
2022/06/14 01:22:58;;;;;;;;;;;;;;;;;;;;;
2022/06/14 01:26:17;;;;;;;10.82;2.78;;;15.50;86.90;;;;;;5010369;28;20350;-87
2022/06/14 01:29:28;;;;;;;11.80;2.47;;;15.50;87.20;;;;;;4999064;28;20045;-87
2022/06/14 01:32:15;;;;;;;10.77;2.30;;;15.40;87.50;;;;;;4990167;28;20026;-87
2022/06/14 01:35:19;;;;;;;;;;;;;;;;;;;;;
2022/06/14 01:38:13;;;;;;;8.30;2.45;;;15.40;87.90;;;;;;5014851;28;20037;-87
2022/06/14 01:44:55;;;;;;;;;;;;;;;;;;;;;
2022/06/14 01:48:06;;;;;;;;;;;;;;;;;;;;;
2022/06/14 01:54:08;;;;;;;9.00;2.78;;;15.20;89.60;;;;;;5016222;28;20037;-87
2022/06/14 02:28:30;;;;;;;;;;;;;;;;;;;;;
2022/06/14 02:55:21;;;;;;;;;;;;;;;;;;;;;
2022/06/14 02:58:44;;;;;;;;;;;;;;;;;;;;;
2022/06/14 03:01:48;;;;;;;;;;;;;;;;;;;;;
2022/06/14 03:05:06;;;;;;;;;;;;;;;;;;;;;
2022/06/14 03:15:35;;;;;;;;;;;;;;;;;;;;;
2022/06/14 03:18:36;;;;;;;13.07;2.97;;;14.30;93.70;;;;;;4995075;28;20496;-95
2022/06/14 03:42:31;;;;;;;;;;;;;;;;;;;;;
2022/06/14 03:45:47;;;;;;;;;;;;;;;;;;;;;
2022/06/14 04:03:13;;;;;;;;;;;;;;;;;;;;;
2022/06/14 04:13:26;;;;;;;;;;;;;;;;;;;;;
2022/06/14 04:57:55;;;;;;;9.67;2.97;;;13.60;99.80;;;;;;5000321;23;20049;-87
2022/06/14 05:00:32;;;;;;;10.07;2.88;;;13.60;99.90;;;;;;5037049;28;20316;-87
2022/06/14 05:03:07;;;;;;;13.07;3.42;;;13.60;99.90;;;;;;5040649;28;20017;-87
2022/06/14 05:05:46;;;;;;;10.07;2.75;;;13.60;99.90;;;;;;5045195;28;20046;-87
2022/06/14 05:08:16;;;;;;;11.43;2.97;;;13.70;99.90;;;;;;5021538;28;20033;-87
2022/06/14 05:10:46;;;;;;;13.50;2.95;;;13.70;99.90;;;;;;5054065;28;20021;-85
2022/06/14 05:13:30;;;;;;;8.35;2.53;;;13.70;99.90;;;;;;5057183;28;20021;-85
2022/06/14 05:16:07;;;;;;;9.20;2.78;;;13.80;99.90;;;;;;5040677;28;20025;-86
2022/06/14 05:18:35;;;;;;;10.80;2.88;;;13.80;99.90;;;;;;5040008;28;20029;-87
2022/06/14 05:21:18;;;;;;;13.32;3.25;;;13.80;99.90;;;;;;5041272;28;20036;-87
2022/06/14 05:23:53;;;;;;;8.45;2.97;;;13.90;99.90;;;;;;5035941;28;20032;-87
2022/06/14 05:26:37;;;;;;;12.23;2.95;;;13.90;99.90;;;;;;5030122;28;20025;-87
2022/06/14 05:29:26;;;;;;;16.08;2.83;;;13.90;99.90;;;;;;5031556;28;20025;-87
2022/06/14 05:32:01;;;;;;;8.18;2.38;;;13.90;99.90;;;;;;5036269;28;20025;-87
2022/06/14 05:34:37;;;;;;;10.02;2.88;;;13.90;99.90;;;;;;5022295;28;20021;-87
2022/06/14 05:37:20;;;;;;;9.48;2.45;;;14.00;99.90;;;;;;5054225;28;20048;-87
2022/06/14 05:39:54;;;;;;;10.35;2.88;;;14.00;99.90;;;;;;5048710;28;20032;-87
2022/06/14 05:42:25;;;;;;;9.25;2.80;;;14.00;99.90;;;;;;5030603;28;20029;-87
2022/06/14 05:44:55;;;;;;;8.80;2.70;;;14.10;99.90;;;;;;5060772;28;20024;-87
2022/06/14 05:47:46;;;;;;;7.22;2.80;;;14.10;99.90;;;;;;5057751;28;20020;-87
2022/06/14 05:50:22;;;;;;;7.65;2.63;;;14.20;99.90;;;;;;5043056;28;20025;-87
2022/06/14 05:53:36;;;;;;;13.55;2.80;;;14.20;99.90;;;;;;5026425;28;20021;-87
2022/06/14 05:56:09;;;;;;;8.38;2.35;;;14.20;99.90;;;;;;5007824;28;20030;-87
2022/06/14 05:59:03;;;;;;;7.88;2.38;;;14.30;99.90;;;;;;5050279;28;20055;-87
2022/06/14 06:01:36;;;;;;;11.38;2.60;;;14.30;99.90;;;;;;5046452;28;20020;-87
2022/06/14 06:07:36;;;;;;;10.05;2.53;;;14.40;99.90;;;;;;5057673;28;20052;-87
2022/06/14 06:10:25;;;;;;;13.13;3.28;;;14.50;99.90;;;;;;5038352;28;20025;-87
2022/06/14 06:13:24;;;;;;;15.30;3.10;;;14.50;99.90;;;;;;5037048;28;20478;-86
2022/06/14 06:15:56;;;;;;;11.68;2.33;;;14.60;99.90;;;;;;5037133;28;20021;-87
2022/06/14 06:18:55;;;;;;;8.73;2.50;;;14.60;99.90;;;;;;5036987;28;20075;-86
2022/06/14 06:21:52;;;;;;;7.35;2.22;;;14.60;99.90;;;;;;4998569;28;20128;-87
2022/06/14 06:24:46;;;;;;;9.95;2.72;;;14.70;99.90;;;;;;5027780;28;20037;-87
2022/06/14 06:27:12;;;;;;;9.10;2.08;;;14.80;99.90;;;;;;5043188;28;20110;-87
2022/06/14 06:29:58;;;;;;;7.90;2.10;;;14.80;99.90;;;;;;5040218;28;20028;-87
2022/06/14 06:32:28;;;;;;;5.95;1.60;;;14.90;99.90;;;;;;5059284;28;20029;-86
2022/06/14 06:34:54;;;;;;;8.95;1.77;;;14.90;99.90;;;;;;5057688;28;20025;-87
2022/06/14 06:37:25;;;;;;;7.22;2.00;;;15.00;99.90;;;;;;5024551;28;20029;-87
2022/06/14 06:40:05;;;;;;;8.23;2.17;;;15.10;99.90;;;;;;5059501;28;20444;-86
2022/06/14 06:42:46;;;;;;;6.65;2.40;;;15.10;99.90;;;;;;5060607;28;20062;-86
2022/06/14 06:45:18;;;;;;;5.72;1.95;;;15.20;99.90;;;;;;5042214;28;20032;-87
2022/06/14 06:48:13;;;;;;;4.13;1.65;;;15.30;99.90;;;;;;5058212;28;20020;-87
2022/06/14 06:51:02;;;;;;;4.60;1.40;;;15.30;99.90;;;;;;5014523;28;20035;-87
2022/06/14 06:53:42;;;;;;;7.60;1.88;;;15.40;99.90;;;;;;5056669;28;20402;-87
2022/06/14 06:56:15;;;;;;;4.78;1.75;;;15.50;99.90;;;;;;5056284;28;20016;-87
2022/06/14 06:58:57;;;;;;;6.20;1.70;;;15.50;99.90;;;;;;5056484;28;20365;-86
2022/06/14 07:01:36;;;;;;;6.60;2.08;;;15.60;99.90;;;;;;5056229;28;20111;-86
2022/06/14 07:05:02;;;;;;;8.95;2.28;;;15.70;99.90;;;;;;5055977;28;20033;-87
2022/06/14 07:07:18;;;;;;;7.00;1.77;;;15.80;99.90;;;;;;5066308;28;20027;-87
2022/06/14 07:09:57;;;;;;;7.25;1.80;;;15.80;99.90;;;;;;5051707;28;20651;-87
2022/06/14 07:12:39;;;;;;;5.97;1.60;;;15.90;99.90;;;;;;5042638;28;20012;-87
2022/06/14 07:15:15;;;;;;;3.90;1.60;;;16.00;99.90;;;;;;5050036;28;20025;-86
2022/06/14 07:17:58;;;;;;;3.22;1.23;;;16.00;99.90;;;;;;5036387;28;20017;-86
2022/06/14 07:20:48;;;;;;;5.55;1.35;;;16.10;99.90;;;;;;5027733;28;20032;-86
2022/06/14 07:23:29;;;;;;;7.13;1.70;;;16.20;99.90;;;;;;5020046;28;20059;-86
2022/06/14 07:26:08;;;;;;;;;;;16.30;99.90;;;;;;5021669;28;20064;-86
2022/06/14 07:28:45;;;;;;;5.65;1.65;;;16.40;99.90;;;;;;5019713;28;19935;-85
2022/06/14 07:31:38;;;;;;;5.18;1.30;;;16.40;99.90;;;;;;5018971;28;20044;-86
2022/06/14 07:34:06;;;;;;;5.13;1.38;;;16.50;99.60;;;;;;5036342;28;20152;-86
2022/06/14 07:36:51;;;;;;;6.18;1.60;;;16.60;98.90;;;;;;5019335;28;20045;-86
2022/06/14 07:39:33;;;;;;;5.40;1.20;;;16.70;98.60;;;;;;5019143;28;20510;-86
2022/06/14 07:42:15;;;;;;;5.60;1.58;;;16.80;98.50;;;;;;5017749;28;20029;-85
2022/06/14 07:45:17;;;;;;;8.75;1.50;;;16.90;98.60;;;;;;5017600;28;20029;-85
2022/06/14 07:48:07;;;;;;;6.20;1.48;;;17.00;98.00;;;;;;5019061;28;20089;-85
2022/06/14 07:50:45;;;;;;;4.88;1.38;;;17.10;97.60;;;;;;5021604;28;20041;-85
2022/06/14 07:53:15;;;;;;;4.07;1.17;;;17.10;97.30;;;;;;5023537;28;20017;-85
2022/06/14 07:55:46;;;;;;;4.13;1.37;;;17.20;97.00;;;;;;5030986;28;20026;-86
2022/06/14 07:58:21;;;;;;;5.68;1.42;;;17.20;96.70;;;;;;5042873;28;20422;-85
2022/06/14 08:01:09;;;;;;;6.22;1.50;;;17.30;96.50;;;;;;5046110;28;20095;-85
2022/06/14 08:03:38;;;;;;;8.05;1.73;;;17.30;96.00;;;;;;5021391;28;20021;-86
2022/06/14 08:06:09;;;;;;;8.85;1.70;;;17.40;95.90;;;;;;5024195;28;20118;-86
2022/06/14 08:08:37;;;;;;;6.15;1.60;;;17.50;95.70;;;;;;5025942;28;20029;-86
2022/06/14 08:11:33;;;;;;;6.38;1.60;;;17.50;95.60;;;;;;5025480;28;20017;-86
2022/06/14 08:14:12;;;;;;;5.50;1.63;;;17.60;95.60;;;;;;5021909;28;20032;-86
2022/06/14 08:16:44;;;;;;;4.43;1.50;;;17.60;95.30;;;;;;5013742;28;20017;-86
2022/06/14 08:19:34;;;;;;;6.82;1.60;;;17.70;95.10;;;;;;5021741;28;20026;-86
2022/06/14 08:22:06;;;;;;;3.75;1.58;;;17.80;94.80;;;;;;5021664;28;20091;-86
2022/06/14 08:24:58;;;;;;;6.47;1.42;;;18.00;94.60;;;;;;5022125;28;20018;-86
2022/06/14 08:27:29;;;;;;;4.45;1.20;;;18.10;94.50;;;;;;5022312;28;20029;-86
2022/06/14 08:30:02;;;;;;;;;;;18.10;94.40;;;;;;5023907;28;20047;-87
2022/06/14 08:32:48;;;;;;;5.05;1.50;;;18.20;94.20;;;;;;5022697;28;20279;-84
2022/06/14 08:35:21;;;;;;;6.20;1.67;;;18.30;94.20;;;;;;5017566;28;20029;-86
2022/06/14 08:38:13;;;;;;;5.70;1.23;;;18.40;94.00;;;;;;5033171;28;20044;-86
2022/06/14 08:40:58;;;;;;;7.18;1.55;;;18.40;93.70;;;;;;5021256;28;20025;-84
2022/06/14 08:43:48;;;;;;;7.28;1.83;;;18.50;93.50;;;;;;5073278;28;20063;-86
2022/06/14 08:46:35;;;;;;;5.72;1.52;;;18.60;93.30;;;;;;5066083;28;20091;-86
2022/06/14 08:49:20;;;;;;;6.95;1.25;;;18.70;93.50;;;;;;5026061;28;20045;-86
2022/06/14 08:51:54;;;;;;;4.72;1.40;;;18.70;93.20;;;;;;5037146;28;20033;-85
2022/06/14 08:54:35;;;;;;;5.65;1.67;;;18.80;93.00;;;;;;5038427;28;20026;-85
2022/06/14 08:57:42;;;;;;;2.72;1.13;;;18.80;92.70;;;;;;5035566;28;20054;-84
2022/06/14 09:00:34;;;;;;;6.05;1.65;;;18.80;92.50;;;;;;4949684;28;20039;-85
2022/06/14 09:03:08;;;;;;;5.35;1.45;;;18.90;92.50;;;;;;4979475;28;20041;-85
2022/06/14 09:05:55;;;;;;;5.63;1.73;;;18.90;92.20;;;;;;5036737;28;20041;-84
2022/06/14 09:08:24;;;;;;;5.70;1.48;;;19.00;91.90;;;;;;5035468;28;20038;-84
2022/06/14 09:11:31;;;;;;;3.90;1.40;;;19.00;91.50;;;;;;5036598;28;20025;-86
2022/06/14 09:14:44;;;;;;;3.75;1.38;;;19.10;91.10;;;;;;4994024;28;20040;-86
2022/06/14 09:17:21;;;;;;;6.15;1.40;;;19.10;90.80;;;;;;4924887;29;20098;-86
2022/06/14 09:20:04;;;;;;;7.32;1.60;;;19.10;90.70;;;;;;5024470;28;20034;-86
2022/06/14 09:22:51;;;;;;;5.85;1.33;;;19.20;91.00;;;;;;5020411;28;20069;-86
2022/06/14 09:25:20;;;;;;;5.53;1.55;;;19.20;90.50;;;;;;5037358;28;20025;-86
2022/06/14 09:27:48;;;;;;;3.58;1.10;;;19.30;90.40;;;;;;5037018;28;20135;-86
2022/06/14 09:30:40;;;;;;;5.10;1.40;;;19.40;90.30;;;;;;5037826;28;20029;-86
2022/06/14 09:33:14;;;;;;;3.33;1.20;;;19.50;89.70;;;;;;5011078;28;20490;-86
2022/06/14 09:36:14;;;;;;;5.85;1.40;;;19.60;89.30;;;;;;5020939;28;20018;-86
2022/06/14 09:39:16;;;;;;;5.00;1.40;;;19.70;88.80;;;;;;5037148;28;20056;-87
2022/06/14 09:41:54;;;;;;;3.78;1.25;;;19.80;88.60;;;;;;5042798;28;20033;-86
2022/06/14 09:44:20;;;;;;;8.07;1.73;;;19.90;88.20;;;;;;5043841;28;20259;-86
2022/06/14 09:47:10;;;;;;;5.15;1.30;;;20.00;87.20;;;;;;5045219;28;20080;-86
2022/06/14 09:50:00;;;;;;;4.22;1.55;;;20.10;86.60;;;;;;5043257;28;20029;-86
2022/06/14 09:52:53;;;;;;;3.85;1.40;;;20.20;86.10;;;;;;5041532;28;20045;-86
2022/06/14 09:55:53;;;;;;;5.35;1.67;;;20.30;86.30;;;;;;5039009;28;20030;-86
2022/06/14 09:58:31;;;;;;;6.32;1.30;;;20.30;86.10;;;;;;5041514;28;20049;-86
2022/06/14 10:00:56;;;;;;;3.50;1.40;;;20.40;85.60;;;;;;5040453;28;20029;-86
2022/06/14 10:03:46;;;;;;;4.82;1.60;;;20.50;85.30;;;;;;5042186;28;20063;-86
2022/06/14 10:06:24;;;;;;;5.65;1.52;;;20.60;85.20;;;;;;5039258;28;20032;-86
2022/06/14 10:09:09;;;;;;;4.47;1.30;;;20.70;84.40;;;;;;5041093;28;20057;-87
2022/06/14 10:12:14;;;;;;;4.35;1.60;;;20.80;83.90;;;;;;5023854;28;20049;-87
2022/06/14 10:15:14;;;;;;;4.85;1.58;;;20.80;82.30;;;;;;5023236;28;20017;-86
2022/06/14 10:17:43;;;;;;;5.28;1.30;;;20.90;81.70;;;;;;5021861;28;20169;-86
2022/06/14 10:20:27;;;;;;;4.18;1.48;;;20.90;81.00;;;;;;5039136;28;20030;-86
2022/06/14 10:23:34;;;;;;;6.70;1.40;;;20.90;80.70;;;;;;5038014;28;20103;-86
2022/06/14 10:29:25;;;;;;;3.78;1.35;;;21.10;79.30;;;;;;5041169;28;20063;-86
2022/06/14 10:32:25;;;;;;;4.85;1.60;;;21.10;77.90;;;;;;5020644;28;20386;-86
2022/06/14 10:35:16;;;;;;;6.25;1.85;;;21.20;77.50;;;;;;5039785;28;20034;-85
2022/06/14 10:38:05;;;;;;;4.75;1.40;;;21.20;77.20;;;;;;5031815;28;20061;-85
2022/06/14 10:40:59;;;;;;;7.22;1.83;;;21.20;76.10;;;;;;5017400;28;20037;-86
2022/06/14 10:44:19;;;;;;;5.45;1.30;;;21.30;75.80;;;;;;5049723;28;20029;-86
2022/06/14 10:47:18;;;;;;;4.13;1.17;;;21.40;77.10;;;;;;4929195;29;20115;-85
2022/06/14 10:49:57;;;;;;;4.22;1.50;;;21.40;75.20;;;;;;5024921;28;20030;-86
2022/06/14 10:52:42;;;;;;;3.58;1.30;;;21.40;75.20;;;;;;5041904;28;20021;-85
2022/06/14 10:55:29;;;;;;;2.75;1.20;;;21.40;75.00;;;;;;5038261;28;20025;-86
2022/06/14 10:58:10;;;;;;;4.82;1.40;;;21.50;74.40;;;;;;5036224;28;20442;-86
2022/06/14 11:00:54;;;;;;;4.13;1.50;;;21.50;74.60;;;;;;5020679;28;20022;-85
2022/06/14 11:03:38;;;;;;;3.55;1.35;;;21.50;74.10;;;;;;5036571;28;20057;-86
2022/06/14 11:06:30;;;;;;;5.30;1.45;;;21.50;73.50;;;;;;5041067;28;20501;-86
2022/06/14 11:09:20;;;;;;;7.40;1.65;;;21.40;73.50;;;;;;5024204;28;20033;-85
2022/06/14 11:11:57;;;;;;;4.50;1.30;;;21.40;72.90;;;;;;5024717;28;20026;-86
2022/06/14 11:14:39;;;;;;;5.38;1.25;;;21.50;72.90;;;;;;5025145;28;20025;-86
2022/06/14 11:17:17;;;;;;;5.25;1.40;;;21.50;72.80;;;;;;5037512;28;20068;-85
2022/06/14 11:19:55;;;;;;;7.55;1.70;;;21.60;73.60;;;;;;5035616;28;20112;-85
2022/06/14 11:22:36;;;;;;;4.13;1.20;;;21.60;70.70;;;;;;5035696;28;20030;-85
2022/06/14 11:25:53;;;;;;;4.43;1.38;;;21.60;70.20;;;;;;5021517;28;20382;-85
2022/06/14 11:28:44;;;;;;;3.20;1.40;;;21.70;71.20;;;;;;4999589;28;20033;-84
2022/06/14 11:31:13;;;;;;;5.15;1.40;;;21.70;71.50;;;;;;5021441;28;20025;-85
2022/06/14 11:34:07;;;;;;;5.40;1.77;;;21.70;71.30;;;;;;5060904;28;20450;-85
2022/06/14 11:36:45;;;;;;;6.55;1.75;;;21.80;71.60;;;;;;5062942;28;20016;-85
2022/06/14 11:39:36;;;;;;;9.13;1.98;;;21.90;72.10;;;;;;5060862;28;20103;-86
2022/06/14 11:42:08;;;;;;;4.72;1.33;;;21.90;71.90;;;;;;5064180;28;20088;-86
2022/06/14 11:44:50;;;;;;;3.72;1.30;;;22.00;72.00;;;;;;5054514;28;20020;-86
2022/06/14 11:47:37;;;;;;;7.50;1.33;;;22.10;72.70;;;;;;5079582;28;20031;-86
2022/06/14 11:50:39;;;;;;;5.95;1.48;;;22.20;72.60;;;;;;5065969;28;20036;-86
2022/06/14 11:53:20;;;;;;;6.22;1.40;;;22.30;72.60;;;;;;5061414;28;20016;-86
2022/06/14 11:55:53;;;;;;;6.78;1.48;;;22.40;72.50;;;;;;5064604;28;20025;-85
2022/06/14 11:58:32;;;;;;;4.28;1.15;;;22.50;71.80;;;;;;5062404;28;20047;-86
2022/06/14 12:01:30;;;;;;;5.70;1.50;;;22.60;71.80;;;;;;5062132;28;20037;-86
2022/06/14 12:04:18;;;;;;;4.68;1.20;;;22.60;71.20;;;;;;5011970;28;20032;-86
2022/06/14 12:07:09;;;;;;;5.72;1.48;;;22.80;71.10;;;;;;5066005;28;20024;-86
2022/06/14 12:09:37;;;;;;;6.80;2.00;;;22.80;70.70;;;;;;5066175;28;20050;-85
2022/06/14 12:12:18;;;;;;;4.28;1.45;;;22.90;69.90;;;;;;5062067;28;20021;-86
2022/06/14 12:15:01;;;;;;;4.93;1.52;;;23.00;69.40;;;;;;5062268;28;20025;-86
2022/06/14 12:18:02;;;;;;;6.65;1.60;;;23.00;69.20;;;;;;5062025;28;20323;-86
2022/06/14 12:20:35;;;;;;;2.85;1.20;;;23.00;68.40;;;;;;5060539;28;20024;-85
2022/06/14 12:23:19;;;;;;;5.10;1.45;;;23.10;67.80;;;;;;5063779;28;20028;-85
2022/06/14 12:29:35;;;;;;;4.75;1.42;;;23.20;67.30;;;;;;5080982;28;20032;-85
2022/06/14 12:32:27;;;;;;;5.55;1.50;;;23.30;67.50;;;;;;5037711;28;20048;-85
2022/06/14 12:35:02;;;;;;;5.05;1.77;;;23.40;67.10;;;;;;5070635;28;20082;-85
2022/06/14 12:37:47;;;;;;;4.05;1.50;;;23.40;66.20;;;;;;5070584;28;20040;-85
2022/06/14 12:40:49;;;;;;;5.05;1.58;;;23.40;66.00;;;;;;5089985;28;20035;-83
2022/06/14 12:43:36;;;;;;;5.30;1.60;;;23.50;66.30;;;;;;5088319;28;20028;-85
2022/06/14 12:46:09;;;;;;;4.30;1.58;;;23.50;65.70;;;;;;5070705;28;20020;-86
2022/06/14 12:52:03;;;;;;;6.00;1.30;;;23.60;65.60;;;;;;5087119;28;20477;-84
2022/06/14 12:54:49;;;;;;;5.78;1.42;;;23.70;65.90;;;;;;5071533;28;20070;-86
2022/06/14 12:57:37;;;;;;;4.47;1.58;;;23.80;66.40;;;;;;5058177;28;20076;-85
2022/06/14 13:00:12;;;;;;;3.88;1.27;;;23.80;66.40;;;;;;5072581;28;20049;-84
2022/06/14 13:03:03;;;;;;;4.75;1.30;;;23.90;65.80;;;;;;5056716;28;20021;-85
2022/06/14 13:05:42;;;;;;;3.35;1.40;;;23.90;65.10;;;;;;5053588;28;20114;-87
2022/06/14 13:08:37;;;;;;;7.50;1.73;;;24.00;64.70;;;;;;5059484;28;20014;-86
2022/06/14 13:11:28;;;;;;;4.00;1.20;;;24.00;64.90;;;;;;5028155;28;20001;-86
2022/06/14 13:14:22;;;;;;;3.85;1.13;;;24.10;64.40;;;;;;5046863;28;20040;-86
2022/06/14 13:17:10;;;;;;;5.50;1.70;;;24.10;64.10;;;;;;5040584;28;20032;-88
2022/06/14 13:19:48;;;;;;;6.47;1.90;;;24.20;64.30;;;;;;5063453;28;20058;-87
2022/06/14 13:22:36;;;;;;;4.80;1.30;;;24.20;64.10;;;;;;5065258;28;20032;-87
2022/06/14 13:25:28;;;;;;;4.05;1.60;;;24.20;64.00;;;;;;5073418;28;20068;-86
2022/06/14 13:28:45;;;;;;;7.00;1.65;;;24.30;64.00;;;;;;5034089;28;20079;-87
2022/06/14 13:31:16;;;;;;;3.95;1.73;;;24.30;63.80;;;;;;5003137;28;20077;-87
2022/06/14 13:34:29;;;;;;;6.07;1.38;;;24.30;62.90;;;;;;5058526;28;20424;-87
2022/06/14 13:37:10;;;;;;;7.43;1.60;;;24.40;62.80;;;;;;5057445;28;20033;-87
2022/06/14 13:39:56;;;;;;;5.55;1.33;;;24.50;62.30;;;;;;5070479;28;20070;-87
2022/06/14 13:42:36;;;;;;;5.70;1.90;;;24.50;61.60;;;;;;5062093;28;20024;-87
2022/06/14 13:45:04;;;;;;;4.15;1.30;;;24.50;61.00;;;;;;5066162;28;20510;-87
2022/06/14 13:47:39;;;;;;;5.32;1.85;;;24.50;59.60;;;;;;5022264;28;20034;-87
2022/06/14 13:50:29;;;;;;;6.03;1.55;;;24.40;59.10;;;;;;5032188;28;20079;-87
2022/06/14 13:53:01;;;;;;;3.20;1.10;;;24.50;60.70;;;;;;5048664;28;20023;-87
2022/06/14 13:55:31;;;;;;;3.97;1.40;;;24.50;61.20;;;;;;5059837;28;20024;-87
2022/06/14 13:58:07;;;;;;;4.95;1.45;;;24.50;61.70;;;;;;5040741;28;20092;-87
2022/06/14 14:00:51;;;;;;;3.83;1.35;;;24.60;61.90;;;;;;5041077;28;20025;-87
2022/06/14 14:03:52;;;;;;;4.20;1.40;;;24.60;62.00;;;;;;5059076;28;20020;-87
2022/06/14 14:06:24;;;;;;;5.57;1.58;;;24.70;61.70;;;;;;4957150;29;20031;-87
2022/06/14 14:09:37;;;;;;;3.78;1.70;;;24.70;61.30;;;;;;5026957;28;20047;-87
2022/06/14 14:12:10;;;;;;;5.35;1.70;;;24.80;60.80;;;;;;5016542;28;20037;-86
2022/06/14 14:14:51;;;;;;;4.35;1.40;;;24.90;60.50;;;;;;5059004;28;20048;-86
2022/06/14 14:17:19;;;;;;;;;;;24.90;60.30;;;;;;5063703;28;20025;-86
2022/06/14 14:20:17;;;;;;;4.05;1.50;;;24.90;60.60;;;;;;5041853;28;20009;-85
2022/06/14 14:23:01;;;;;;;5.25;1.38;;;24.90;59.90;;;;;;5044414;28;20135;-86
2022/06/14 14:25:39;;;;;;;6.88;1.45;;;25.00;59.80;;;;;;5049039;28;20075;-86
2022/06/14 14:28:11;;;;;;;5.10;1.55;;;25.00;59.70;;;;;;5055766;28;20167;-86
2022/06/14 14:30:54;;;;;;;4.97;1.40;;;25.00;59.50;;;;;;5055840;28;20150;-86
2022/06/14 14:33:31;;;;;;;6.10;1.73;;;25.10;59.70;;;;;;5037985;28;20021;-86
2022/06/14 14:36:01;;;;;;;4.75;1.35;;;25.00;57.50;;;;;;5057293;28;20365;-85
2022/06/14 14:38:33;;;;;;;4.78;1.50;;;25.00;57.40;;;;;;5040975;28;20017;-85
2022/06/14 14:41:33;;;;;;;5.93;1.65;;;25.00;57.90;;;;;;5043654;28;20084;-85
2022/06/14 14:44:22;;;;;;;7.00;1.83;;;25.10;57.40;;;;;;5040521;28;20120;-85
2022/06/14 14:47:00;;;;;;;4.10;1.40;;;25.10;57.80;;;;;;5043058;28;20490;-85
2022/06/14 14:55:13;;;;;;;4.38;1.50;;;25.10;57.50;;;;;;5016508;28;20097;-86
2022/06/14 14:58:21;;;;;;;6.30;1.65;;;25.10;56.70;;;;;;4996914;28;20026;-87
2022/06/14 15:07:04;;;;;;;3.28;1.38;;;25.10;56.90;;;;;;5003696;28;20113;-86
2022/06/14 15:09:34;;;;;;;4.68;1.85;;;25.20;56.90;;;;;;4986452;28;20088;-87
2022/06/14 15:12:14;;;;;;;3.67;1.35;;;25.10;56.90;;;;;;4998455;28;20022;-86
2022/06/14 15:14:40;;;;;;;6.35;1.67;;;25.20;57.30;;;;;;4987012;28;20017;-87
2022/06/14 15:20:00;;;;;;;3.73;1.40;;;25.30;56.40;;;;;;5015311;28;20561;-85
2022/06/14 15:22:45;;;;;;;3.13;1.45;;;25.20;56.00;;;;;;4992744;28;20026;-85
2022/06/14 15:25:14;;;;;;;4.85;1.63;;;25.30;56.10;;;;;;5010242;28;20026;-86
2022/06/14 15:27:42;;;;;;;4.70;1.83;;;25.30;55.80;;;;;;5018804;28;20042;-84
2022/06/14 15:30:34;;;;;;;5.97;1.70;;;25.30;55.60;;;;;;5027214;28;20081;-85
2022/06/14 15:33:39;;;;;;;5.38;1.77;;;25.30;55.90;;;;;;5025925;28;20197;-85
2022/06/14 15:36:29;;;;;;;7.20;1.90;;;25.30;55.90;;;;;;5021561;28;20072;-84
2022/06/14 15:39:02;;;;;;;;;;;25.30;55.70;;;;;;4991431;28;20113;-85
2022/06/14 15:41:34;;;;;;;3.88;1.45;;;25.30;55.90;;;;;;5005715;28;19916;-85
2022/06/14 15:44:17;;;;;;;4.53;1.30;;;25.30;55.80;;;;;;5017029;28;20033;-85
2022/06/14 15:47:08;;;;;;;5.30;2.00;;;25.30;55.60;;;;;;5014198;28;20030;-85
2022/06/14 15:49:37;;;;;;;8.68;1.80;;;25.40;55.70;;;;;;4997333;28;20014;-85
2022/06/14 15:52:21;;;;;;;3.05;1.20;;;25.40;55.40;;;;;;5014808;28;20081;-85
2022/06/14 15:54:54;;;;;;;4.18;1.50;;;25.40;55.80;;;;;;4997799;28;20037;-85
2022/06/14 15:57:22;;;;;;;4.40;1.70;;;25.40;55.60;;;;;;4997565;28;20065;-86
2022/06/14 16:00:24;;;;;;;6.63;1.60;;;25.50;55.30;;;;;;5001251;28;20122;-87
2022/06/14 16:03:08;;;;;;;3.88;1.63;;;25.50;55.40;;;;;;4991241;28;20034;-88
2022/06/14 16:05:39;;;;;;;7.82;2.10;;;25.50;55.80;;;;;;5009873;28;20030;-88
2022/06/14 16:08:11;;;;;;;4.85;1.67;;;25.50;55.60;;;;;;4997469;28;20478;-89
2022/06/14 16:10:41;;;;;;;3.40;1.30;;;25.50;55.90;;;;;;4997588;28;20030;-86
2022/06/14 16:13:20;;;;;;;4.43;1.40;;;25.60;55.90;;;;;;4996764;28;20029;-85
2022/06/14 16:15:53;;;;;;;5.68;2.00;;;25.60;55.20;;;;;;4996794;28;20058;-86
2022/06/14 16:18:35;;;;;;;5.38;1.75;;;25.70;55.00;;;;;;5010688;28;20017;-86
2022/06/14 16:21:09;;;;;;;4.15;1.60;;;25.70;55.70;;;;;;4996707;28;20033;-86
2022/06/14 16:23:37;;;;;;;5.55;1.50;;;25.80;56.10;;;;;;5013414;28;20026;-89
2022/06/14 16:26:32;;;;;;;6.35;1.90;;;25.80;55.90;;;;;;4997277;28;20056;-89
2022/06/14 16:29:08;;;;;;;4.05;1.60;;;25.90;55.50;;;;;;5003773;28;20033;-90
2022/06/14 16:31:45;;;;;;;5.22;1.73;;;26.00;55.10;;;;;;5011267;28;20014;-90
2022/06/14 16:34:27;;;;;;;4.25;1.75;;;26.00;54.80;;;;;;4997097;28;20028;-90
2022/06/14 16:37:04;;;;;;;3.97;1.65;;;26.10;55.20;;;;;;4996877;28;20033;-89
2022/06/14 16:39:44;;;;;;;3.90;1.45;;;26.10;54.70;;;;;;4997131;28;20054;-89
2022/06/14 16:42:13;;;;;;;6.93;1.85;;;26.20;54.30;;;;;;4997012;28;20018;-88
2022/06/14 16:44:48;;;;;;;3.45;1.40;;;26.30;54.00;;;;;;4996966;28;20038;-89
2022/06/14 16:47:43;;;;;;;3.88;1.30;;;26.30;54.50;;;;;;4997321;28;20031;-90
2022/06/14 16:50:20;;;;;;;5.00;1.50;;;26.30;53.50;;;;;;4997308;28;20387;-90
2022/06/14 16:53:01;;;;;;;6.47;1.50;;;26.40;53.60;;;;;;4997780;28;20038;-88
2022/06/14 16:55:55;;;;;;;5.40;1.50;;;26.40;53.90;;;;;;4997108;28;20033;-89
2022/06/14 16:58:48;;;;;;;5.32;1.70;;;26.50;53.60;;;;;;4985415;28;20040;-89
2022/06/14 17:01:14;;;;;;;4.07;1.33;;;26.50;54.20;;;;;;5003536;28;20073;-87
2022/06/14 17:04:02;;;;;;;4.32;1.52;;;26.50;54.20;;;;;;4998796;28;20022;-87
2022/06/14 17:07:03;;;;;;;3.53;1.33;;;26.60;54.20;;;;;;4983023;28;20030;-86
2022/06/14 17:09:54;;;;;;;3.60;1.40;;;26.60;54.20;;;;;;4986212;28;20121;-87
2022/06/14 17:12:46;;;;;;;2.92;1.40;;;26.60;54.30;;;;;;4994328;28;20124;-86
2022/06/14 17:15:38;;;;;;;4.68;1.42;;;26.60;55.70;;;;;;4990922;28;20034;-86
2022/06/14 17:18:12;;;;;;;4.20;1.52;;;26.60;55.60;;;;;;4989481;28;20019;-87
2022/06/14 17:20:54;;;;;;;6.10;2.00;;;26.60;55.90;;;;;;4981156;28;20124;-87
2022/06/14 17:24:04;;;;;;;5.10;1.60;;;26.50;55.80;;;;;;4966946;28;20029;-87
2022/06/14 17:30:32;;;;;;;4.95;1.50;;;26.40;53.90;;;;;;4988655;28;20038;-86
2022/06/14 17:33:47;;;;;;;5.22;1.38;;;26.40;54.30;;;;;;4972412;28;20067;-87
2022/06/14 17:36:23;;;;;;;5.40;1.65;;;26.30;53.30;;;;;;4979404;28;20034;-86
2022/06/14 17:43:06;;;;;;;2.97;1.40;;;26.00;51.90;;;;;;4996506;28;20124;-87
2022/06/14 17:45:57;;;;;;;5.72;1.75;;;25.90;52.50;;;;;;5004744;28;20457;-86
2022/06/14 17:48:53;;;;;;;4.00;1.38;;;25.80;52.70;;;;;;5005288;28;20026;-87
2022/06/14 17:52:09;;;;;;;6.15;1.70;;;25.60;53.40;;;;;;4956337;29;20034;-85
2022/06/14 17:55:25;;;;;;;4.60;1.55;;;25.50;53.60;;;;;;5009425;28;20038;-86
2022/06/14 17:58:23;;;;;;;4.32;1.27;;;25.50;54.70;;;;;;5017027;28;20026;-85
2022/06/14 18:01:27;;;;;;;3.20;1.20;;;25.30;54.10;;;;;;4999833;28;20022;-86
2022/06/14 18:04:43;;;;;;;5.38;1.60;;;25.30;55.00;;;;;;5005697;28;20463;-85
2022/06/14 18:07:47;;;;;;;3.33;1.40;;;25.20;55.20;;;;;;4940729;29;20043;-85
2022/06/14 18:10:37;;;;;;;3.72;1.27;;;25.10;55.20;;;;;;4918246;29;20046;-85
2022/06/14 18:13:48;;;;;;;3.45;1.50;;;25.10;55.60;;;;;;4944989;28;20039;-86
2022/06/14 18:16:32;;;;;;;4.50;1.42;;;25.00;55.30;;;;;;4959833;28;20030;-86
2022/06/14 18:22:43;;;;;;;5.40;1.80;;;24.80;55.10;;;;;;5004929;28;20548;-85
2022/06/14 18:25:13;;;;;;;3.88;1.33;;;24.80;55.40;;;;;;5017458;28;20057;-86
2022/06/14 18:28:23;;;;;;;4.18;1.30;;;24.70;55.40;;;;;;5010227;28;20029;-86